Bard, New Mexico
Current Conditions -  °F | °C
As of 12:53 PM on Thursday 29 Jan 2015 (Local Time) from KTCC Reporting Station
Overcast Overcast  
Wind Chill: 42°   Ceiling: 8500
Heat Index: 48°   Visibility: 10mi
Dew Point: 20°   Wind: 14mph
Humidity: 33%   Direction: 60°ENE
Pressure: 30.48"   Gusts: NA
Location:  35.13°N, 103.25°W
Report Text: KTCC 291953Z AUTO 06012KT 10SM OVC085 09/M07 A3048 RMK AO2 SLP307 T00891067
Loading
Personal Weather Stations






























Interactive Weather Map New forecast layout! Learn more

10-Day Weather Forecast

Advertisements
Track Severe Weather on mobile